sensor_id;sensor_type;location;lat;lon;timestamp;P1;durP1;ratioP1;P2;durP2;ratioP2
56291;SDS011;54008;53.606;9.462;2022-09-20T00:02:23;10.48;;;2.30;;
56291;SDS011;54008;53.606;9.462;2022-09-20T00:04:48;10.23;;;2.28;;
56291;SDS011;54008;53.606;9.462;2022-09-20T00:07:13;10.40;;;2.33;;
56291;SDS011;54008;53.606;9.462;2022-09-20T00:09:39;11.85;;;2.75;;
56291;SDS011;54008;53.606;9.462;2022-09-20T00:12:05;10.23;;;2.28;;
56291;SDS011;54008;53.606;9.462;2022-09-20T00:14:30;15.35;;;2.30;;
56291;SDS011;54008;53.606;9.462;2022-09-20T00:16:55;11.15;;;2.50;;
56291;SDS011;54008;53.606;9.462;2022-09-20T00:19:21;14.98;;;2.45;;
56291;SDS011;54008;53.606;9.462;2022-09-20T00:21:46;13.05;;;2.58;;
56291;SDS011;54008;53.606;9.462;2022-09-20T00:24:12;13.18;;;2.40;;
56291;SDS011;54008;53.606;9.462;2022-09-20T00:26:37;9.77;;;3.15;;
56291;SDS011;54008;53.606;9.462;2022-09-20T00:29:03;13.68;;;3.50;;
56291;SDS011;54008;53.606;9.462;2022-09-20T00:31:29;10.05;;;2.50;;
56291;SDS011;54008;53.606;9.462;2022-09-20T00:33:55;13.48;;;2.70;;
56291;SDS011;54008;53.606;9.462;2022-09-20T00:36:39;14.27;;;2.85;;
56291;SDS011;54008;53.606;9.462;2022-09-20T00:39:05;14.57;;;2.60;;
56291;SDS011;54008;53.606;9.462;2022-09-20T00:41:30;14.95;;;2.97;;
56291;SDS011;54008;53.606;9.462;2022-09-20T00:43:57;19.40;;;3.28;;
56291;SDS011;54008;53.606;9.462;2022-09-20T00:49:18;12.80;;;3.00;;
56291;SDS011;54008;53.606;9.462;2022-09-20T00:51:47;10.63;;;2.97;;
56291;SDS011;54008;53.606;9.462;2022-09-20T00:54:16;19.23;;;2.78;;
56291;SDS011;54008;53.606;9.462;2022-09-20T00:56:44;10.25;;;3.30;;
56291;SDS011;54008;53.606;9.462;2022-09-20T00:59:21;17.85;;;3.30;;
56291;SDS011;54008;53.606;9.462;2022-09-20T01:01:52;14.35;;;3.13;;
56291;SDS011;54008;53.606;9.462;2022-09-20T01:04:23;18.80;;;3.17;;
56291;SDS011;54008;53.606;9.462;2022-09-20T01:06:52;18.88;;;3.40;;
56291;SDS011;54008;53.606;9.462;2022-09-20T01:09:20;11.98;;;2.78;;
56291;SDS011;54008;53.606;9.462;2022-09-20T01:11:45;18.05;;;2.92;;
56291;SDS011;54008;53.606;9.462;2022-09-20T01:14:13;10.35;;;3.15;;
56291;SDS011;54008;53.606;9.462;2022-09-20T01:16:41;13.40;;;3.17;;
56291;SDS011;54008;53.606;9.462;2022-09-20T01:19:13;11.77;;;2.90;;
56291;SDS011;54008;53.606;9.462;2022-09-20T01:21:48;7.50;;;3.10;;
56291;SDS011;54008;53.606;9.462;2022-09-20T01:24:57;15.45;;;3.88;;
56291;SDS011;54008;53.606;9.462;2022-09-20T01:32:15;17.02;;;3.33;;
56291;SDS011;54008;53.606;9.462;2022-09-20T01:34:49;8.57;;;2.92;;
56291;SDS011;54008;53.606;9.462;2022-09-20T01:37:25;15.35;;;3.80;;
56291;SDS011;54008;53.606;9.462;2022-09-20T01:40:10;9.18;;;3.05;;
56291;SDS011;54008;53.606;9.462;2022-09-20T01:42:46;10.83;;;3.80;;
56291;SDS011;54008;53.606;9.462;2022-09-20T01:45:26;9.82;;;3.25;;
56291;SDS011;54008;53.606;9.462;2022-09-20T01:47:57;10.18;;;3.70;;
56291;SDS011;54008;53.606;9.462;2022-09-20T01:59:13;7.72;;;3.35;;
56291;SDS011;54008;53.606;9.462;2022-09-20T02:10:40;7.78;;;3.15;;
56291;SDS011;54008;53.606;9.462;2022-09-20T02:16:10;7.53;;;3.20;;
56291;SDS011;54008;53.606;9.462;2022-09-20T02:18:54;12.30;;;3.85;;
56291;SDS011;54008;53.606;9.462;2022-09-20T02:21:59;8.07;;;3.08;;
56291;SDS011;54008;53.606;9.462;2022-09-20T02:24:50;8.05;;;2.85;;
56291;SDS011;54008;53.606;9.462;2022-09-20T02:30:14;14.05;;;2.90;;
56291;SDS011;54008;53.606;9.462;2022-09-20T02:41:53;7.40;;;2.78;;
56291;SDS011;54008;53.606;9.462;2022-09-20T02:47:08;8.80;;;3.10;;
56291;SDS011;54008;53.606;9.462;2022-09-20T02:52:25;8.10;;;2.40;;
56291;SDS011;54008;53.606;9.462;2022-09-20T03:03:50;5.25;;;2.55;;
56291;SDS011;54008;53.606;9.462;2022-09-20T03:09:25;5.85;;;2.05;;
56291;SDS011;54008;53.606;9.462;2022-09-20T03:12:01;9.48;;;2.28;;
56291;SDS011;54008;53.606;9.462;2022-09-20T03:20:34;5.50;;;1.73;;
56291;SDS011;54008;53.606;9.462;2022-09-20T03:25:52;4.07;;;1.73;;
56291;SDS011;54008;53.606;9.462;2022-09-20T03:28:23;5.25;;;1.60;;
56291;SDS011;54008;53.606;9.462;2022-09-20T03:30:53;6.75;;;1.50;;
56291;SDS011;54008;53.606;9.462;2022-09-20T03:33:37;8.32;;;1.70;;
56291;SDS011;54008;53.606;9.462;2022-09-20T03:36:27;6.70;;;1.45;;
56291;SDS011;54008;53.606;9.462;2022-09-20T03:47:05;4.38;;;1.58;;
56291;SDS011;54008;53.606;9.462;2022-09-20T03:50:06;4.88;;;1.45;;
56291;SDS011;54008;53.606;9.462;2022-09-20T03:55:30;4.10;;;1.88;;
56291;SDS011;54008;53.606;9.462;2022-09-20T03:58:13;3.75;;;1.52;;
56291;SDS011;54008;53.606;9.462;2022-09-20T04:03:53;6.47;;;1.30;;
56291;SDS011;54008;53.606;9.462;2022-09-20T04:06:31;3.38;;;1.60;;
56291;SDS011;54008;53.606;9.462;2022-09-20T04:12:21;10.70;;;1.80;;
56291;SDS011;54008;53.606;9.462;2022-09-20T04:17:46;5.57;;;1.60;;
56291;SDS011;54008;53.606;9.462;2022-09-20T04:22:56;4.72;;;1.42;;
56291;SDS011;54008;53.606;9.462;2022-09-20T04:25:28;4.35;;;1.42;;
56291;SDS011;54008;53.606;9.462;2022-09-20T04:28:04;6.30;;;1.42;;
56291;SDS011;54008;53.606;9.462;2022-09-20T04:30:43;4.38;;;1.70;;
56291;SDS011;54008;53.606;9.462;2022-09-20T04:33:12;4.70;;;1.40;;
56291;SDS011;54008;53.606;9.462;2022-09-20T04:39:11;6.23;;;1.57;;
56291;SDS011;54008;53.606;9.462;2022-09-20T04:42:08;6.35;;;1.60;;
56291;SDS011;54008;53.606;9.462;2022-09-20T04:47:35;6.57;;;1.77;;
56291;SDS011;54008;53.606;9.462;2022-09-20T04:50:49;7.00;;;1.50;;
56291;SDS011;54008;53.606;9.462;2022-09-20T04:56:27;4.80;;;1.35;;
56291;SDS011;54008;53.606;9.462;2022-09-20T05:05:22;4.32;;;1.35;;
56291;SDS011;54008;53.606;9.462;2022-09-20T05:08:20;7.47;;;1.77;;
56291;SDS011;54008;53.606;9.462;2022-09-20T05:16:50;5.55;;;2.08;;
56291;SDS011;54008;53.606;9.462;2022-09-20T05:25:10;4.35;;;1.90;;
56291;SDS011;54008;53.606;9.462;2022-09-20T05:30:24;5.00;;;1.80;;
56291;SDS011;54008;53.606;9.462;2022-09-20T05:33:03;9.43;;;2.72;;
56291;SDS011;54008;53.606;9.462;2022-09-20T05:35:39;5.82;;;1.90;;
56291;SDS011;54008;53.606;9.462;2022-09-20T05:38:17;3.55;;;1.45;;
56291;SDS011;54008;53.606;9.462;2022-09-20T05:43:32;7.38;;;1.98;;
56291;SDS011;54008;53.606;9.462;2022-09-20T05:54:16;4.22;;;2.15;;
56291;SDS011;54008;53.606;9.462;2022-09-20T05:56:53;4.03;;;1.80;;
56291;SDS011;54008;53.606;9.462;2022-09-20T06:00:31;6.15;;;2.47;;
56291;SDS011;54008;53.606;9.462;2022-09-20T06:02:37;5.95;;;2.00;;
56291;SDS011;54008;53.606;9.462;2022-09-20T06:05:13;4.95;;;2.30;;
56291;SDS011;54008;53.606;9.462;2022-09-20T06:10:31;7.20;;;1.40;;
56291;SDS011;54008;53.606;9.462;2022-09-20T06:13:12;5.85;;;1.55;;
56291;SDS011;54008;53.606;9.462;2022-09-20T06:15:44;4.40;;;1.25;;
56291;SDS011;54008;53.606;9.462;2022-09-20T06:23:51;5.93;;;1.33;;
56291;SDS011;54008;53.606;9.462;2022-09-20T06:26:23;14.50;;;1.75;;
56291;SDS011;54008;53.606;9.462;2022-09-20T06:28:53;8.75;;;1.60;;
56291;SDS011;54008;53.606;9.462;2022-09-20T06:31:22;4.50;;;1.30;;
56291;SDS011;54008;53.606;9.462;2022-09-20T06:33:52;5.82;;;1.70;;
56291;SDS011;54008;53.606;9.462;2022-09-20T06:36:24;9.68;;;1.70;;
56291;SDS011;54008;53.606;9.462;2022-09-20T06:39:21;8.15;;;1.88;;
56291;SDS011;54008;53.606;9.462;2022-09-20T06:42:17;5.93;;;1.38;;
56291;SDS011;54008;53.606;9.462;2022-09-20T06:44:43;6.35;;;1.88;;
56291;SDS011;54008;53.606;9.462;2022-09-20T06:47:11;5.78;;;1.77;;
56291;SDS011;54008;53.606;9.462;2022-09-20T06:49:38;8.50;;;1.70;;
56291;SDS011;54008;53.606;9.462;2022-09-20T06:52:07;7.45;;;1.40;;
56291;SDS011;54008;53.606;9.462;2022-09-20T06:54:36;7.30;;;2.05;;
56291;SDS011;54008;53.606;9.462;2022-09-20T06:57:02;9.18;;;1.30;;
56291;SDS011;54008;53.606;9.462;2022-09-20T06:59:30;9.65;;;1.67;;
56291;SDS011;54008;53.606;9.462;2022-09-20T07:01:55;6.75;;;1.50;;
56291;SDS011;54008;53.606;9.462;2022-09-20T07:04:21;7.68;;;1.45;;
56291;SDS011;54008;53.606;9.462;2022-09-20T07:06:47;4.55;;;1.33;;
56291;SDS011;54008;53.606;9.462;2022-09-20T07:09:12;5.25;;;1.27;;
56291;SDS011;54008;53.606;9.462;2022-09-20T07:11:37;6.93;;;1.20;;
56291;SDS011;54008;53.606;9.462;2022-09-20T07:14:03;5.93;;;1.20;;
56291;SDS011;54008;53.606;9.462;2022-09-20T07:16:28;9.60;;;1.50;;
56291;SDS011;54008;53.606;9.462;2022-09-20T07:18:54;6.68;;;1.40;;
56291;SDS011;54008;53.606;9.462;2022-09-20T07:21:20;10.18;;;1.35;;
56291;SDS011;54008;53.606;9.462;2022-09-20T07:23:45;7.72;;;1.48;;
56291;SDS011;54008;53.606;9.462;2022-09-20T07:26:15;7.68;;;2.10;;
56291;SDS011;54008;53.606;9.462;2022-09-20T07:28:45;6.13;;;1.35;;
56291;SDS011;54008;53.606;9.462;2022-09-20T07:31:11;5.70;;;1.27;;
56291;SDS011;54008;53.606;9.462;2022-09-20T07:33:36;7.30;;;1.25;;
56291;SDS011;54008;53.606;9.462;2022-09-20T07:36:01;6.65;;;1.75;;
56291;SDS011;54008;53.606;9.462;2022-09-20T07:38:26;7.57;;;1.38;;
56291;SDS011;54008;53.606;9.462;2022-09-20T07:40:55;5.47;;;1.23;;
56291;SDS011;54008;53.606;9.462;2022-09-20T07:43:24;11.07;;;1.58;;
56291;SDS011;54008;53.606;9.462;2022-09-20T07:45:50;5.93;;;1.27;;
56291;SDS011;54008;53.606;9.462;2022-09-20T07:48:23;7.28;;;1.48;;
56291;SDS011;54008;53.606;9.462;2022-09-20T07:50:54;17.45;;;2.00;;
56291;SDS011;54008;53.606;9.462;2022-09-20T07:53:23;8.50;;;1.45;;
56291;SDS011;54008;53.606;9.462;2022-09-20T07:55:55;7.28;;;1.65;;
56291;SDS011;54008;53.606;9.462;2022-09-20T07:58:21;6.63;;;1.08;;
56291;SDS011;54008;53.606;9.462;2022-09-20T08:00:50;12.00;;;1.27;;
56291;SDS011;54008;53.606;9.462;2022-09-20T08:03:17;8.77;;;1.40;;
56291;SDS011;54008;53.606;9.462;2022-09-20T08:05:42;5.30;;;1.20;;
56291;SDS011;54008;53.606;9.462;2022-09-20T08:08:08;10.82;;;2.20;;
56291;SDS011;54008;53.606;9.462;2022-09-20T08:10:33;16.05;;;2.25;;
56291;SDS011;54008;53.606;9.462;2022-09-20T08:12:59;6.10;;;1.02;;
56291;SDS011;54008;53.606;9.462;2022-09-20T08:15:24;8.95;;;1.42;;
56291;SDS011;54008;53.606;9.462;2022-09-20T08:17:50;9.90;;;1.98;;
56291;SDS011;54008;53.606;9.462;2022-09-20T08:20:15;12.80;;;1.45;;
56291;SDS011;54008;53.606;9.462;2022-09-20T08:22:40;10.55;;;1.80;;
56291;SDS011;54008;53.606;9.462;2022-09-20T08:25:07;8.90;;;1.90;;
56291;SDS011;54008;53.606;9.462;2022-09-20T08:27:32;9.57;;;2.20;;
56291;SDS011;54008;53.606;9.462;2022-09-20T08:29:57;9.27;;;1.48;;
56291;SDS011;54008;53.606;9.462;2022-09-20T08:32:25;5.57;;;0.95;;
56291;SDS011;54008;53.606;9.462;2022-09-20T08:34:50;8.18;;;1.42;;
56291;SDS011;54008;53.606;9.462;2022-09-20T08:37:15;9.25;;;1.70;;
56291;SDS011;54008;53.606;9.462;2022-09-20T08:39:40;11.53;;;2.03;;
56291;SDS011;54008;53.606;9.462;2022-09-20T08:42:11;8.80;;;1.63;;
56291;SDS011;54008;53.606;9.462;2022-09-20T08:44:48;10.65;;;1.60;;
56291;SDS011;54008;53.606;9.462;2022-09-20T08:47:21;11.70;;;1.60;;
56291;SDS011;54008;53.606;9.462;2022-09-20T08:49:49;11.52;;;1.55;;
56291;SDS011;54008;53.606;9.462;2022-09-20T08:52:18;3.92;;;1.00;;
56291;SDS011;54008;53.606;9.462;2022-09-20T08:54:49;5.65;;;1.80;;
56291;SDS011;54008;53.606;9.462;2022-09-20T08:57:15;4.68;;;1.25;;
56291;SDS011;54008;53.606;9.462;2022-09-20T08:59:42;7.93;;;1.50;;
56291;SDS011;54008;53.606;9.462;2022-09-20T09:02:16;12.73;;;1.50;;
56291;SDS011;54008;53.606;9.462;2022-09-20T09:04:43;7.82;;;1.17;;
56291;SDS011;54008;53.606;9.462;2022-09-20T09:07:10;6.95;;;1.30;;
56291;SDS011;54008;53.606;9.462;2022-09-20T09:09:38;8.40;;;1.75;;
56291;SDS011;54008;53.606;9.462;2022-09-20T09:12:13;11.37;;;1.47;;
56291;SDS011;54008;53.606;9.462;2022-09-20T09:14:43;8.25;;;1.98;;
56291;SDS011;54008;53.606;9.462;2022-09-20T09:17:20;8.35;;;1.35;;
56291;SDS011;54008;53.606;9.462;2022-09-20T09:19:51;10.70;;;2.03;;
56291;SDS011;54008;53.606;9.462;2022-09-20T09:22:22;12.10;;;1.70;;
56291;SDS011;54008;53.606;9.462;2022-09-20T09:30:34;12.55;;;1.92;;
56291;SDS011;54008;53.606;9.462;2022-09-20T09:35:41;10.10;;;1.30;;
56291;SDS011;54008;53.606;9.462;2022-09-20T09:38:14;7.97;;;1.30;;
56291;SDS011;54008;53.606;9.462;2022-09-20T09:44:04;9.15;;;1.50;;
56291;SDS011;54008;53.606;9.462;2022-09-20T09:46:33;9.07;;;1.35;;
56291;SDS011;54008;53.606;9.462;2022-09-20T09:51:38;7.32;;;1.45;;
56291;SDS011;54008;53.606;9.462;2022-09-20T09:54:08;6.70;;;1.53;;
56291;SDS011;54008;53.606;9.462;2022-09-20T10:07:24;7.82;;;1.33;;
56291;SDS011;54008;53.606;9.462;2022-09-20T10:23:27;5.53;;;1.13;;
56291;SDS011;54008;53.606;9.462;2022-09-20T10:26:02;10.50;;;1.50;;
56291;SDS011;54008;53.606;9.462;2022-09-20T10:34:33;13.02;;;2.03;;
56291;SDS011;54008;53.606;9.462;2022-09-20T10:37:22;11.13;;;1.90;;
56291;SDS011;54008;53.606;9.462;2022-09-20T10:43:21;8.38;;;0.85;;
56291;SDS011;54008;53.606;9.462;2022-09-20T10:46:10;8.27;;;1.23;;
56291;SDS011;54008;53.606;9.462;2022-09-20T10:48:45;9.13;;;1.15;;
56291;SDS011;54008;53.606;9.462;2022-09-20T10:56:35;11.57;;;1.20;;
56291;SDS011;54008;53.606;9.462;2022-09-20T11:04:55;11.95;;;1.30;;
56291;SDS011;54008;53.606;9.462;2022-09-20T11:07:50;8.05;;;1.00;;
56291;SDS011;54008;53.606;9.462;2022-09-20T11:10:24;11.50;;;1.58;;
56291;SDS011;54008;53.606;9.462;2022-09-20T11:16:08;9.90;;;2.13;;
56291;SDS011;54008;53.606;9.462;2022-09-20T11:19:02;2.67;;;0.77;;
56291;SDS011;54008;53.606;9.462;2022-09-20T11:21:37;7.95;;;1.10;;
56291;SDS011;54008;53.606;9.462;2022-09-20T11:24:17;8.15;;;1.05;;
56291;SDS011;54008;53.606;9.462;2022-09-20T11:27:11;8.10;;;1.20;;
56291;SDS011;54008;53.606;9.462;2022-09-20T11:35:01;10.55;;;1.20;;
56291;SDS011;54008;53.606;9.462;2022-09-20T11:37:35;6.65;;;1.40;;
56291;SDS011;54008;53.606;9.462;2022-09-20T11:40:14;12.90;;;1.17;;
56291;SDS011;54008;53.606;9.462;2022-09-20T11:42:46;10.70;;;1.98;;
56291;SDS011;54008;53.606;9.462;2022-09-20T11:45:12;7.80;;;1.10;;
56291;SDS011;54008;53.606;9.462;2022-09-20T11:47:57;7.88;;;1.27;;
56291;SDS011;54008;53.606;9.462;2022-09-20T11:50:44;12.18;;;1.25;;
56291;SDS011;54008;53.606;9.462;2022-09-20T11:58:51;5.30;;;0.95;;
56291;SDS011;54008;53.606;9.462;2022-09-20T12:04:21;9.60;;;1.80;;
56291;SDS011;54008;53.606;9.462;2022-09-20T12:06:54;9.77;;;1.40;;
56291;SDS011;54008;53.606;9.462;2022-09-20T12:09:29;7.75;;;1.38;;
56291;SDS011;54008;53.606;9.462;2022-09-20T12:11:58;5.32;;;1.25;;
56291;SDS011;54008;53.606;9.462;2022-09-20T12:14:37;8.63;;;1.13;;
56291;SDS011;54008;53.606;9.462;2022-09-20T12:17:03;7.75;;;1.58;;
56291;SDS011;54008;53.606;9.462;2022-09-20T12:24:22;5.67;;;1.23;;
56291;SDS011;54008;53.606;9.462;2022-09-20T12:26:48;7.68;;;1.20;;
56291;SDS011;54008;53.606;9.462;2022-09-20T12:31:51;20.08;;;2.42;;
56291;SDS011;54008;53.606;9.462;2022-09-20T12:37:14;8.73;;;1.53;;
56291;SDS011;54008;53.606;9.462;2022-09-20T12:39:38;10.60;;;1.35;;
56291;SDS011;54008;53.606;9.462;2022-09-20T12:42:23;6.28;;;1.02;;
56291;SDS011;54008;53.606;9.462;2022-09-20T12:44:59;7.20;;;1.10;;
56291;SDS011;54008;53.606;9.462;2022-09-20T12:47:30;7.18;;;0.95;;
56291;SDS011;54008;53.606;9.462;2022-09-20T12:49:57;6.35;;;1.67;;
56291;SDS011;54008;53.606;9.462;2022-09-20T12:55:31;6.68;;;1.13;;
56291;SDS011;54008;53.606;9.462;2022-09-20T12:58:04;10.02;;;1.23;;
56291;SDS011;54008;53.606;9.462;2022-09-20T13:14:11;6.70;;;0.90;;
56291;SDS011;54008;53.606;9.462;2022-09-20T13:16:48;5.80;;;1.00;;
56291;SDS011;54008;53.606;9.462;2022-09-20T13:19:26;5.63;;;1.40;;
56291;SDS011;54008;53.606;9.462;2022-09-20T13:21:56;9.00;;;1.23;;
56291;SDS011;54008;53.606;9.462;2022-09-20T13:24:27;7.88;;;1.50;;
56291;SDS011;54008;53.606;9.462;2022-09-20T13:26:59;4.60;;;1.00;;
56291;SDS011;54008;53.606;9.462;2022-09-20T13:29:31;3.67;;;0.93;;
56291;SDS011;54008;53.606;9.462;2022-09-20T13:34:41;6.10;;;1.50;;
56291;SDS011;54008;53.606;9.462;2022-09-20T13:37:07;5.53;;;1.00;;
56291;SDS011;54008;53.606;9.462;2022-09-20T13:39:47;6.75;;;0.90;;
56291;SDS011;54008;53.606;9.462;2022-09-20T13:42:18;4.40;;;1.35;;
56291;SDS011;54008;53.606;9.462;2022-09-20T13:44:44;6.38;;;1.55;;
56291;SDS011;54008;53.606;9.462;2022-09-20T13:47:20;7.10;;;1.58;;
56291;SDS011;54008;53.606;9.462;2022-09-20T13:49:47;5.78;;;1.17;;
56291;SDS011;54008;53.606;9.462;2022-09-20T13:52:21;5.13;;;0.90;;
56291;SDS011;54008;53.606;9.462;2022-09-20T13:54:48;7.03;;;1.30;;
56291;SDS011;54008;53.606;9.462;2022-09-20T13:57:17;7.75;;;1.20;;
56291;SDS011;54008;53.606;9.462;2022-09-20T13:59:46;8.80;;;1.45;;
56291;SDS011;54008;53.606;9.462;2022-09-20T14:02:20;8.75;;;1.63;;
56291;SDS011;54008;53.606;9.462;2022-09-20T14:04:47;6.03;;;0.85;;
56291;SDS011;54008;53.606;9.462;2022-09-20T14:07:16;7.10;;;1.52;;
56291;SDS011;54008;53.606;9.462;2022-09-20T14:09:42;7.97;;;1.58;;
56291;SDS011;54008;53.606;9.462;2022-09-20T14:12:09;6.47;;;1.00;;
56291;SDS011;54008;53.606;9.462;2022-09-20T14:14:36;7.15;;;1.52;;
56291;SDS011;54008;53.606;9.462;2022-09-20T14:17:03;6.43;;;1.42;;
56291;SDS011;54008;53.606;9.462;2022-09-20T14:19:31;10.95;;;2.00;;
56291;SDS011;54008;53.606;9.462;2022-09-20T14:22:04;8.98;;;2.85;;
56291;SDS011;54008;53.606;9.462;2022-09-20T14:24:31;7.22;;;1.42;;
56291;SDS011;54008;53.606;9.462;2022-09-20T14:29:28;4.97;;;0.70;;
56291;SDS011;54008;53.606;9.462;2022-09-20T14:32:05;8.23;;;1.33;;
56291;SDS011;54008;53.606;9.462;2022-09-20T14:34:36;6.85;;;1.10;;
56291;SDS011;54008;53.606;9.462;2022-09-20T14:37:06;5.00;;;0.93;;
56291;SDS011;54008;53.606;9.462;2022-09-20T14:39:52;5.93;;;1.05;;
56291;SDS011;54008;53.606;9.462;2022-09-20T14:42:30;5.57;;;0.98;;
56291;SDS011;54008;53.606;9.462;2022-09-20T14:44:59;5.05;;;1.10;;
56291;SDS011;54008;53.606;9.462;2022-09-20T14:47:28;7.47;;;1.10;;
56291;SDS011;54008;53.606;9.462;2022-09-20T14:50:02;8.68;;;1.15;;
56291;SDS011;54008;53.606;9.462;2022-09-20T14:52:35;6.53;;;1.63;;
56291;SDS011;54008;53.606;9.462;2022-09-20T14:57:34;7.60;;;1.23;;
56291;SDS011;54008;53.606;9.462;2022-09-20T15:00:03;9.93;;;1.38;;
56291;SDS011;54008;53.606;9.462;2022-09-20T15:02:33;4.60;;;0.82;;
56291;SDS011;54008;53.606;9.462;2022-09-20T15:05:00;4.90;;;1.08;;
56291;SDS011;54008;53.606;9.462;2022-09-20T15:07:26;10.35;;;2.17;;
56291;SDS011;54008;53.606;9.462;2022-09-20T15:09:51;10.55;;;1.10;;
56291;SDS011;54008;53.606;9.462;2022-09-20T15:12:17;7.10;;;1.08;;
56291;SDS011;54008;53.606;9.462;2022-09-20T15:14:44;8.85;;;1.35;;
56291;SDS011;54008;53.606;9.462;2022-09-20T15:17:17;3.90;;;1.02;;
56291;SDS011;54008;53.606;9.462;2022-09-20T15:19:45;7.55;;;1.25;;
56291;SDS011;54008;53.606;9.462;2022-09-20T15:22:10;6.15;;;1.42;;
56291;SDS011;54008;53.606;9.462;2022-09-20T15:24:36;5.43;;;0.95;;
56291;SDS011;54008;53.606;9.462;2022-09-20T15:27:01;7.32;;;1.45;;
56291;SDS011;54008;53.606;9.462;2022-09-20T15:29:27;7.53;;;1.10;;
56291;SDS011;54008;53.606;9.462;2022-09-20T15:31:52;9.97;;;1.43;;
56291;SDS011;54008;53.606;9.462;2022-09-20T15:34:17;7.33;;;0.80;;
56291;SDS011;54008;53.606;9.462;2022-09-20T15:36:43;8.63;;;1.67;;
56291;SDS011;54008;53.606;9.462;2022-09-20T15:39:08;6.82;;;1.58;;
56291;SDS011;54008;53.606;9.462;2022-09-20T15:41:35;9.38;;;1.60;;
56291;SDS011;54008;53.606;9.462;2022-09-20T15:44:01;5.05;;;1.15;;
56291;SDS011;54008;53.606;9.462;2022-09-20T15:46:27;4.53;;;0.90;;
56291;SDS011;54008;53.606;9.462;2022-09-20T15:48:53;8.38;;;1.58;;
56291;SDS011;54008;53.606;9.462;2022-09-20T15:51:19;4.30;;;1.27;;
56291;SDS011;54008;53.606;9.462;2022-09-20T15:53:45;11.65;;;1.20;;
56291;SDS011;54008;53.606;9.462;2022-09-20T15:58:44;4.75;;;1.13;;
56291;SDS011;54008;53.606;9.462;2022-09-20T16:01:12;9.48;;;1.65;;
56291;SDS011;54008;53.606;9.462;2022-09-20T16:03:40;8.88;;;1.00;;
56291;SDS011;54008;53.606;9.462;2022-09-20T16:06:07;8.75;;;1.65;;
56291;SDS011;54008;53.606;9.462;2022-09-20T16:08:33;7.40;;;1.00;;
56291;SDS011;54008;53.606;9.462;2022-09-20T16:11:00;11.48;;;1.58;;
56291;SDS011;54008;53.606;9.462;2022-09-20T16:13:26;5.18;;;1.02;;
56291;SDS011;54008;53.606;9.462;2022-09-20T16:15:58;6.20;;;1.20;;
56291;SDS011;54008;53.606;9.462;2022-09-20T16:18:25;5.78;;;1.10;;
56291;SDS011;54008;53.606;9.462;2022-09-20T16:21:12;7.88;;;1.42;;
56291;SDS011;54008;53.606;9.462;2022-09-20T16:23:41;6.60;;;1.08;;
56291;SDS011;54008;53.606;9.462;2022-09-20T16:26:10;10.93;;;1.58;;
56291;SDS011;54008;53.606;9.462;2022-09-20T16:28:40;4.90;;;0.90;;
56291;SDS011;54008;53.606;9.462;2022-09-20T16:33:55;5.88;;;1.38;;
56291;SDS011;54008;53.606;9.462;2022-09-20T16:36:21;8.68;;;1.10;;
56291;SDS011;54008;53.606;9.462;2022-09-20T16:38:52;9.85;;;0.80;;
56291;SDS011;54008;53.606;9.462;2022-09-20T16:41:22;4.20;;;0.70;;
56291;SDS011;54008;53.606;9.462;2022-09-20T16:43:48;4.13;;;0.80;;
56291;SDS011;54008;53.606;9.462;2022-09-20T16:46:15;7.57;;;1.23;;
56291;SDS011;54008;53.606;9.462;2022-09-20T16:48:40;9.80;;;1.67;;
56291;SDS011;54008;53.606;9.462;2022-09-20T16:51:07;5.57;;;0.90;;
56291;SDS011;54008;53.606;9.462;2022-09-20T16:53:35;5.47;;;0.87;;
56291;SDS011;54008;53.606;9.462;2022-09-20T16:56:00;7.97;;;1.33;;
56291;SDS011;54008;53.606;9.462;2022-09-20T16:58:28;9.20;;;1.30;;
56291;SDS011;54008;53.606;9.462;2022-09-20T17:03:40;6.63;;;1.70;;
56291;SDS011;54008;53.606;9.462;2022-09-20T17:09:05;7.93;;;0.93;;
56291;SDS011;54008;53.606;9.462;2022-09-20T17:11:41;6.10;;;1.00;;
56291;SDS011;54008;53.606;9.462;2022-09-20T17:14:18;10.32;;;2.28;;
56291;SDS011;54008;53.606;9.462;2022-09-20T17:16:50;3.97;;;1.38;;
56291;SDS011;54008;53.606;9.462;2022-09-20T17:19:16;5.47;;;2.08;;
56291;SDS011;54008;53.606;9.462;2022-09-20T17:21:45;7.07;;;1.67;;
56291;SDS011;54008;53.606;9.462;2022-09-20T17:24:14;5.10;;;1.50;;
56291;SDS011;54008;53.606;9.462;2022-09-20T17:26:46;11.20;;;1.63;;
56291;SDS011;54008;53.606;9.462;2022-09-20T17:29:18;8.93;;;1.80;;
56291;SDS011;54008;53.606;9.462;2022-09-20T17:31:53;7.70;;;2.03;;
56291;SDS011;54008;53.606;9.462;2022-09-20T17:34:23;6.30;;;1.95;;
56291;SDS011;54008;53.606;9.462;2022-09-20T17:37:03;9.40;;;3.15;;
56291;SDS011;54008;53.606;9.462;2022-09-20T17:42:34;6.47;;;1.85;;
56291;SDS011;54008;53.606;9.462;2022-09-20T17:45:15;11.50;;;2.83;;
56291;SDS011;54008;53.606;9.462;2022-09-20T17:48:01;9.80;;;3.97;;
56291;SDS011;54008;53.606;9.462;2022-09-20T17:53:27;18.08;;;6.63;;
56291;SDS011;54008;53.606;9.462;2022-09-20T17:56:20;17.52;;;5.88;;
56291;SDS011;54008;53.606;9.462;2022-09-20T17:59:01;11.63;;;3.78;;
56291;SDS011;54008;53.606;9.462;2022-09-20T18:01:55;9.98;;;3.70;;
56291;SDS011;54008;53.606;9.462;2022-09-20T18:07:21;7.18;;;2.20;;
56291;SDS011;54008;53.606;9.462;2022-09-20T18:09:48;7.20;;;1.87;;
56291;SDS011;54008;53.606;9.462;2022-09-20T18:12:14;6.65;;;1.60;;
56291;SDS011;54008;53.606;9.462;2022-09-20T18:14:39;9.25;;;2.35;;
56291;SDS011;54008;53.606;9.462;2022-09-20T18:17:04;8.10;;;2.33;;
56291;SDS011;54008;53.606;9.462;2022-09-20T18:19:31;6.90;;;1.70;;
56291;SDS011;54008;53.606;9.462;2022-09-20T18:21:57;8.13;;;1.95;;
56291;SDS011;54008;53.606;9.462;2022-09-20T18:24:23;4.75;;;1.48;;
56291;SDS011;54008;53.606;9.462;2022-09-20T18:26:49;6.05;;;1.70;;
56291;SDS011;54008;53.606;9.462;2022-09-20T18:29:15;9.02;;;1.83;;
56291;SDS011;54008;53.606;9.462;2022-09-20T18:31:44;5.78;;;1.50;;
56291;SDS011;54008;53.606;9.462;2022-09-20T18:34:12;6.93;;;1.23;;
56291;SDS011;54008;53.606;9.462;2022-09-20T18:36:42;7.82;;;1.40;;
56291;SDS011;54008;53.606;9.462;2022-09-20T18:39:09;6.60;;;1.40;;
56291;SDS011;54008;53.606;9.462;2022-09-20T18:41:36;7.00;;;1.45;;
56291;SDS011;54008;53.606;9.462;2022-09-20T18:44:04;12.85;;;1.63;;
56291;SDS011;54008;53.606;9.462;2022-09-20T18:46:31;8.95;;;1.58;;
56291;SDS011;54008;53.606;9.462;2022-09-20T18:48:58;10.18;;;1.60;;
56291;SDS011;54008;53.606;9.462;2022-09-20T18:51:29;11.57;;;1.42;;
56291;SDS011;54008;53.606;9.462;2022-09-20T18:53:55;8.90;;;2.65;;
56291;SDS011;54008;53.606;9.462;2022-09-20T18:58:54;4.40;;;1.40;;
56291;SDS011;54008;53.606;9.462;2022-09-20T19:09:56;9.88;;;2.05;;
56291;SDS011;54008;53.606;9.462;2022-09-20T19:18:18;9.73;;;1.58;;
56291;SDS011;54008;53.606;9.462;2022-09-20T19:21:04;5.97;;;2.33;;
56291;SDS011;54008;53.606;9.462;2022-09-20T19:23:57;7.35;;;1.70;;
56291;SDS011;54008;53.606;9.462;2022-09-20T19:26:45;6.47;;;2.10;;
56291;SDS011;54008;53.606;9.462;2022-09-20T19:31:50;6.30;;;1.65;;
56291;SDS011;54008;53.606;9.462;2022-09-20T19:34:18;5.80;;;1.50;;
56291;SDS011;54008;53.606;9.462;2022-09-20T19:36:53;8.57;;;2.25;;
56291;SDS011;54008;53.606;9.462;2022-09-20T19:39:33;8.07;;;2.42;;
56291;SDS011;54008;53.606;9.462;2022-09-20T19:42:15;12.07;;;2.70;;
56291;SDS011;54008;53.606;9.462;2022-09-20T19:50:39;10.75;;;5.15;;
56291;SDS011;54008;53.606;9.462;2022-09-20T19:53:04;17.23;;;4.00;;
56291;SDS011;54008;53.606;9.462;2022-09-20T19:55:33;8.00;;;3.10;;
56291;SDS011;54008;53.606;9.462;2022-09-20T19:57:59;14.40;;;3.17;;
56291;SDS011;54008;53.606;9.462;2022-09-20T20:00:24;7.72;;;2.35;;
56291;SDS011;54008;53.606;9.462;2022-09-20T20:02:50;9.80;;;2.65;;
56291;SDS011;54008;53.606;9.462;2022-09-20T20:05:17;11.60;;;3.20;;
56291;SDS011;54008;53.606;9.462;2022-09-20T20:07:56;7.97;;;2.40;;